createdAt,value
2017-05-13T00:00:32.321Z,16.46
2017-05-13T00:01:12.918Z,16.46
2017-05-13T00:01:53.522Z,16.46
2017-05-13T00:02:34.099Z,16.42
2017-05-13T00:03:14.690Z,16.47
2017-05-13T00:03:55.298Z,16.39
2017-05-13T00:04:35.917Z,16.41
2017-05-13T00:05:16.501Z,16.35
2017-05-13T00:05:57.078Z,16.32
2017-05-13T00:06:37.690Z,16.36
2017-05-13T00:07:18.296Z,16.35
2017-05-13T00:07:58.937Z,16.36
2017-05-13T00:08:39.531Z,16.32
2017-05-13T00:09:20.162Z,16.33
2017-05-13T00:10:00.779Z,16.35
2017-05-13T00:10:41.420Z,16.31
2017-05-13T00:11:22.026Z,16.31
2017-05-13T00:12:02.631Z,16.33
2017-05-13T00:12:43.254Z,16.38
2017-05-13T00:13:23.889Z,16.32
2017-05-13T00:14:04.473Z,16.33
2017-05-13T00:14:45.070Z,16.28
2017-05-13T00:15:25.648Z,16.28
2017-05-13T00:16:06.242Z,16.35
2017-05-13T00:16:46.823Z,16.24
2017-05-13T00:17:27.406Z,16.33
2017-05-13T00:18:07.990Z,16.26
2017-05-13T00:18:48.561Z,16.35
2017-05-13T00:19:29.129Z,16.29
2017-05-13T00:20:09.731Z,16.29
2017-05-13T00:20:50.334Z,16.26
2017-05-13T00:21:30.914Z,16.21
2017-05-13T00:22:11.496Z,16.26
2017-05-13T00:22:52.089Z,16.28
2017-05-13T00:23:32.662Z,16.29
2017-05-13T00:24:13.249Z,16.23
2017-05-13T00:24:53.842Z,16.28
2017-05-13T00:25:34.465Z,16.31
2017-05-13T00:26:15.062Z,16.28
2017-05-13T00:26:55.645Z,16.33
2017-05-13T00:27:36.222Z,16.31
2017-05-13T00:28:16.809Z,16.29
2017-05-13T00:28:57.503Z,16.31
2017-05-13T00:29:38.074Z,16.29
2017-05-13T00:30:18.651Z,16.31
2017-05-13T00:30:59.238Z,16.32
2017-05-13T00:31:39.868Z,16.24
2017-05-13T00:32:20.474Z,16.31
2017-05-13T00:33:01.073Z,16.33
2017-05-13T00:33:41.646Z,16.35
2017-05-13T00:34:22.214Z,16.24
2017-05-13T00:35:02.797Z,16.21
2017-05-13T00:35:43.369Z,16.23
2017-05-13T00:36:24.008Z,16.29
2017-05-13T00:37:04.615Z,16.29
2017-05-13T00:37:45.181Z,16.29
2017-05-13T00:38:25.789Z,16.24
2017-05-13T00:39:06.370Z,16.17
2017-05-13T00:39:46.937Z,16.21
2017-05-13T00:40:27.514Z,16.24
2017-05-13T00:41:08.085Z,16.2
2017-05-13T00:41:48.675Z,16.23
2017-05-13T00:42:29.292Z,16.21
2017-05-13T00:43:09.901Z,16.13
2017-05-13T00:43:50.473Z,16.17
2017-05-13T00:44:31.070Z,16.09
2017-05-13T00:45:11.686Z,16.13
2017-05-13T00:45:52.271Z,16.13
2017-05-13T00:46:32.882Z,16.09
2017-05-13T00:47:13.471Z,16.08
2017-05-13T00:47:54.067Z,16.1
2017-05-13T00:48:34.661Z,16.09
2017-05-13T00:49:15.249Z,16.1
2017-05-13T00:49:55.892Z,16.08
2017-05-13T00:50:36.513Z,16.1
2017-05-13T00:51:17.102Z,16.09
2017-05-13T00:51:57.726Z,16.1
2017-05-13T00:52:38.315Z,16.05
2017-05-13T00:53:18.892Z,16.1
2017-05-13T00:53:59.518Z,16.04
2017-05-13T00:54:40.118Z,16.12
2017-05-13T00:55:20.683Z,16.04
2017-05-13T00:56:01.283Z,16.09
2017-05-13T00:56:41.844Z,16.08
2017-05-13T00:57:22.429Z,16.04
2017-05-13T00:58:03.204Z,16.1
2017-05-13T00:58:43.622Z,16.09
2017-05-13T00:59:24.226Z,16.09
2017-05-13T01:00:04.814Z,16.08
2017-05-13T01:00:45.384Z,16.05
2017-05-13T01:01:25.979Z,16.09
2017-05-13T01:02:06.570Z,16.12
2017-05-13T01:02:47.145Z,16.04
2017-05-13T01:03:27.726Z,16.1
2017-05-13T01:04:08.300Z,16.09
2017-05-13T01:04:48.887Z,16.08
2017-05-13T01:05:29.466Z,15.98
2017-05-13T01:06:10.080Z,16.05
2017-05-13T01:06:50.657Z,15.98
2017-05-13T01:07:31.239Z,15.98
2017-05-13T01:08:11.865Z,15.97
2017-05-13T01:08:52.445Z,16.02
2017-05-13T01:09:33.066Z,15.97
2017-05-13T01:10:13.653Z,15.98
2017-05-13T01:10:54.265Z,16.01
2017-05-13T01:11:34.887Z,15.98
2017-05-13T01:12:15.468Z,16
2017-05-13T01:12:56.034Z,15.98
2017-05-13T01:13:36.619Z,15.94
2017-05-13T01:14:17.219Z,16
2017-05-13T01:14:57.815Z,15.92
2017-05-13T01:15:38.401Z,15.95
2017-05-13T01:16:18.993Z,15.91
2017-05-13T01:16:59.573Z,15.95
2017-05-13T01:17:40.164Z,15.97
2017-05-13T01:18:20.776Z,15.97
2017-05-13T01:19:01.353Z,15.95
2017-05-13T01:19:41.951Z,15.98
2017-05-13T01:20:22.552Z,15.98
2017-05-13T01:21:03.128Z,15.92
2017-05-13T01:21:43.733Z,15.94
2017-05-13T01:22:24.329Z,15.95
2017-05-13T01:23:04.903Z,15.86
2017-05-13T01:23:45.515Z,15.95
2017-05-13T01:24:26.122Z,15.9
2017-05-13T01:25:06.689Z,15.95
2017-05-13T01:25:47.274Z,15.92
2017-05-13T01:26:27.874Z,15.9
2017-05-13T01:27:08.473Z,15.91
2017-05-13T01:27:49.048Z,15.92
2017-05-13T01:28:29.636Z,15.9
2017-05-13T01:29:10.240Z,15.83
2017-05-13T01:29:50.828Z,15.92
2017-05-13T01:30:31.417Z,15.94
2017-05-13T01:31:12.004Z,15.92
2017-05-13T01:31:52.616Z,15.88
2017-05-13T01:32:33.210Z,15.91
2017-05-13T01:33:13.848Z,15.92
2017-05-13T01:33:54.444Z,15.91
2017-05-13T01:34:35.036Z,15.9
2017-05-13T01:35:15.632Z,15.95
2017-05-13T01:35:56.262Z,15.86
2017-05-13T01:36:36.855Z,15.92
2017-05-13T01:37:17.448Z,15.82
2017-05-13T01:37:58.015Z,15.97
2017-05-13T01:38:38.609Z,15.88
2017-05-13T01:39:19.193Z,15.9
2017-05-13T01:39:59.835Z,15.92
2017-05-13T01:40:40.414Z,15.9
2017-05-13T01:41:20.982Z,15.95
2017-05-13T01:42:01.594Z,15.83
2017-05-13T01:42:42.127Z,15.94
2017-05-13T01:43:22.718Z,15.84
2017-05-13T01:44:03.324Z,15.88
2017-05-13T01:44:43.923Z,15.88
2017-05-13T01:45:24.508Z,15.91
2017-05-13T01:46:05.116Z,15.9
2017-05-13T01:46:45.883Z,15.83
2017-05-13T01:47:26.480Z,15.88
2017-05-13T01:48:07.051Z,15.83
2017-05-13T01:48:47.652Z,15.88
2017-05-13T01:49:28.290Z,15.77
2017-05-13T01:50:08.883Z,15.77
2017-05-13T01:50:49.474Z,15.84
2017-05-13T01:51:30.050Z,15.76
2017-05-13T01:52:10.638Z,15.86
2017-05-13T01:52:51.220Z,15.76
2017-05-13T01:53:31.784Z,15.8
2017-05-13T01:54:12.415Z,15.83
2017-05-13T01:54:53.010Z,15.76
2017-05-13T01:55:33.605Z,15.91
2017-05-13T01:56:14.192Z,15.76
2017-05-13T01:56:54.805Z,15.82
2017-05-13T01:57:35.394Z,15.88
2017-05-13T01:58:15.987Z,15.9
2017-05-13T01:58:56.559Z,15.91
2017-05-13T01:59:37.155Z,15.83
2017-05-13T02:00:17.738Z,15.84
2017-05-13T02:00:58.314Z,15.9
2017-05-13T02:01:38.885Z,15.73
2017-05-13T02:02:19.482Z,15.84
2017-05-13T02:03:00.092Z,15.84
2017-05-13T02:03:40.690Z,15.77
2017-05-13T02:04:21.277Z,15.84
2017-05-13T02:05:01.849Z,15.9
2017-05-13T02:05:42.417Z,15.82
2017-05-13T02:06:22.996Z,15.9
2017-05-13T02:07:03.603Z,15.88
2017-05-13T02:07:44.177Z,15.84
2017-05-13T02:08:24.753Z,15.83
2017-05-13T02:09:05.338Z,15.8
2017-05-13T02:09:45.954Z,15.9
2017-05-13T02:10:26.566Z,15.9
2017-05-13T02:11:07.156Z,15.84
2017-05-13T02:11:47.726Z,16.02
2017-05-13T02:12:28.338Z,15.8
2017-05-13T02:13:09.011Z,15.88
2017-05-13T02:13:49.607Z,15.8
2017-05-13T02:14:30.204Z,15.84
2017-05-13T02:15:10.799Z,15.79
2017-05-13T02:15:51.392Z,15.83
2017-05-13T02:16:32.003Z,15.83
2017-05-13T02:17:12.632Z,15.9
2017-05-13T02:17:53.226Z,15.77
2017-05-13T02:18:33.814Z,15.73
2017-05-13T02:19:14.423Z,15.83
2017-05-13T02:19:55.030Z,15.8
2017-05-13T02:20:35.626Z,15.77
2017-05-13T02:21:16.251Z,15.8
2017-05-13T02:21:56.838Z,15.84
2017-05-13T02:22:37.424Z,15.79
2017-05-13T02:23:18.013Z,15.88
2017-05-13T02:23:58.599Z,15.83
2017-05-13T02:24:39.190Z,15.9
2017-05-13T02:25:19.779Z,15.86
2017-05-13T02:26:00.382Z,15.79
2017-05-13T02:26:40.953Z,15.77
2017-05-13T02:27:21.537Z,15.8
2017-05-13T02:28:02.152Z,15.72
2017-05-13T02:28:42.721Z,15.76
2017-05-13T02:29:23.339Z,15.65
2017-05-13T02:30:03.945Z,15.73
2017-05-13T02:30:44.543Z,15.72
2017-05-13T02:31:25.166Z,15.73
2017-05-13T02:32:05.790Z,15.75
2017-05-13T02:32:46.374Z,15.75
2017-05-13T02:33:26.949Z,15.75
2017-05-13T02:34:07.541Z,15.76
2017-05-13T02:34:48.110Z,15.76
2017-05-13T02:35:28.685Z,15.79
2017-05-13T02:36:09.268Z,15.73
2017-05-13T02:36:49.866Z,15.79
2017-05-13T02:37:30.480Z,15.77
2017-05-13T02:38:11.082Z,15.77
2017-05-13T02:38:51.671Z,15.79
2017-05-13T02:39:32.291Z,15.76
2017-05-13T02:40:12.976Z,15.8
2017-05-13T02:40:53.592Z,15.8
2017-05-13T02:41:34.437Z,15.77
2017-05-13T02:42:15.086Z,15.8
2017-05-13T02:42:55.691Z,15.76
2017-05-13T02:43:36.317Z,15.77
2017-05-13T02:44:16.924Z,15.79
2017-05-13T02:44:57.566Z,15.75
2017-05-13T02:45:38.580Z,15.76
2017-05-13T02:46:19.167Z,15.76
2017-05-13T02:46:59.791Z,15.83
2017-05-13T02:47:40.393Z,15.77
2017-05-13T02:48:21.166Z,15.7
2017-05-13T02:49:01.912Z,15.7
2017-05-13T02:49:42.572Z,15.84
2017-05-13T02:50:23.279Z,15.79
2017-05-13T02:51:04.097Z,15.75
2017-05-13T02:51:44.474Z,15.8
2017-05-13T02:52:25.066Z,15.72
2017-05-13T02:53:05.658Z,15.75
2017-05-13T02:53:46.252Z,15.7
2017-05-13T02:54:26.832Z,15.77
2017-05-13T02:55:07.469Z,15.73
2017-05-13T02:55:48.095Z,15.77
2017-05-13T02:56:28.668Z,15.76
2017-05-13T02:57:09.260Z,15.7
2017-05-13T02:57:49.900Z,15.72
2017-05-13T02:58:30.531Z,15.67
2017-05-13T02:59:11.117Z,15.75
2017-05-13T02:59:51.714Z,15.73
2017-05-13T03:00:32.282Z,15.65
2017-05-13T03:01:12.947Z,15.68
2017-05-13T03:01:53.527Z,15.67
2017-05-13T03:02:34.116Z,15.7
2017-05-13T03:03:14.694Z,15.73
2017-05-13T03:03:55.295Z,15.7
2017-05-13T03:04:35.876Z,15.76
2017-05-13T03:05:16.489Z,15.76
2017-05-13T03:05:57.312Z,15.75
2017-05-13T03:06:37.945Z,15.75
2017-05-13T03:07:18.526Z,15.73
2017-05-13T03:07:59.129Z,15.76
2017-05-13T03:08:39.723Z,15.76
2017-05-13T03:09:20.337Z,15.68
2017-05-13T03:10:00.939Z,15.73
2017-05-13T03:10:41.543Z,15.72
2017-05-13T03:11:22.176Z,15.72
2017-05-13T03:12:02.814Z,15.64
2017-05-13T03:12:43.430Z,15.68
2017-05-13T03:13:24.023Z,15.61
2017-05-13T03:14:04.636Z,15.76
2017-05-13T03:14:45.236Z,15.59
2017-05-13T03:15:25.932Z,15.58
2017-05-13T03:16:06.597Z,15.58
2017-05-13T03:16:47.259Z,15.64
2017-05-13T03:17:28.296Z,15.58
2017-05-13T03:18:08.871Z,15.57
2017-05-13T03:18:49.462Z,15.57
2017-05-13T03:19:30.067Z,15.59
2017-05-13T03:20:10.651Z,15.59
2017-05-13T03:20:51.227Z,15.57
2017-05-13T03:21:31.930Z,15.61
2017-05-13T03:22:12.515Z,15.62
2017-05-13T03:22:53.196Z,15.58
2017-05-13T03:23:33.763Z,15.52
2017-05-13T03:24:14.356Z,15.61
2017-05-13T03:24:55.038Z,15.54
2017-05-13T03:25:35.747Z,15.55
2017-05-13T03:26:16.446Z,15.54
2017-05-13T03:26:57.246Z,15.58
2017-05-13T03:27:37.884Z,15.54
2017-05-13T03:28:18.475Z,15.57
2017-05-13T03:28:59.041Z,15.59
2017-05-13T03:29:39.638Z,15.57
2017-05-13T03:30:20.219Z,15.47
2017-05-13T03:31:00.808Z,15.59
2017-05-13T03:31:41.422Z,15.52
2017-05-13T03:32:22.021Z,15.49
2017-05-13T03:33:02.641Z,15.59
2017-05-13T03:33:43.269Z,15.47
2017-05-13T03:34:23.850Z,15.51
2017-05-13T03:35:04.553Z,15.51
2017-05-13T03:35:45.946Z,15.46
2017-05-13T03:36:27.377Z,15.54
2017-05-13T03:37:08.095Z,15.47
2017-05-13T03:37:48.761Z,15.49
2017-05-13T03:38:29.477Z,15.55
2017-05-13T03:39:10.161Z,15.52
2017-05-13T03:39:50.728Z,15.54
2017-05-13T03:40:31.315Z,15.51
2017-05-13T03:41:11.951Z,15.46
2017-05-13T03:41:52.599Z,15.46
2017-05-13T03:42:33.231Z,15.52
2017-05-13T03:43:14.057Z,15.46
2017-05-13T03:43:54.771Z,15.46
2017-05-13T03:44:35.348Z,15.46
2017-05-13T03:45:16.230Z,15.43
2017-05-13T03:45:56.816Z,15.49
2017-05-13T03:46:37.464Z,15.54
2017-05-13T03:47:18.045Z,15.44
2017-05-13T03:47:58.666Z,15.49
2017-05-13T03:48:39.271Z,15.47
2017-05-13T03:49:19.837Z,15.47
2017-05-13T03:50:01.011Z,15.46
2017-05-13T03:50:41.718Z,15.51
2017-05-13T03:51:22.860Z,15.43
2017-05-13T03:52:03.550Z,15.42
2017-05-13T03:52:44.537Z,15.35
2017-05-13T03:53:25.480Z,15.44
2017-05-13T03:54:06.590Z,15.35
2017-05-13T03:54:47.400Z,15.35
2017-05-13T03:55:28.210Z,15.35
2017-05-13T03:56:09.354Z,15.35
2017-05-13T03:56:50.179Z,15.35
2017-05-13T03:57:31.344Z,15.35
2017-05-13T03:58:12.112Z,15.4
2017-05-13T03:58:52.746Z,15.35
2017-05-13T03:59:33.359Z,15.35
2017-05-13T04:00:14.091Z,15.35
2017-05-13T04:00:54.711Z,15.46
2017-05-13T04:01:35.429Z,15.43
2017-05-13T04:02:15.990Z,15.33
2017-05-13T04:02:56.587Z,15.44
2017-05-13T04:03:37.215Z,15.37
2017-05-13T04:04:17.827Z,15.44
2017-05-13T04:04:58.426Z,15.33
2017-05-13T04:05:39.011Z,15.36
2017-05-13T04:06:19.607Z,15.47
2017-05-13T04:07:00.234Z,15.44
2017-05-13T04:07:41.073Z,15.35
2017-05-13T04:08:21.996Z,15.46
2017-05-13T04:09:02.855Z,15.46
2017-05-13T04:09:43.383Z,15.42
2017-05-13T04:10:23.990Z,15.51
2017-05-13T04:11:04.623Z,15.51
2017-05-13T04:11:45.425Z,15.39
2017-05-13T04:12:26.105Z,15.46
2017-05-13T04:13:06.781Z,15.35
2017-05-13T04:13:47.415Z,15.47
2017-05-13T04:14:28.043Z,15.36
2017-05-13T04:15:08.736Z,15.42
2017-05-13T04:15:49.565Z,15.37
2017-05-13T04:16:30.506Z,15.46
2017-05-13T04:17:11.179Z,15.44
2017-05-13T04:17:51.757Z,15.37
2017-05-13T04:18:32.365Z,15.42
2017-05-13T04:19:12.952Z,15.36
2017-05-13T04:19:53.848Z,15.39
2017-05-13T04:20:34.849Z,15.36
2017-05-13T04:21:15.746Z,15.31
2017-05-13T04:21:56.334Z,15.35
2017-05-13T04:22:37.347Z,15.29
2017-05-13T04:23:18.112Z,15.39
2017-05-13T04:23:59.514Z,15.36
2017-05-13T04:24:40.462Z,15.4
2017-05-13T04:25:21.092Z,15.36
2017-05-13T04:26:02.058Z,15.39
2017-05-13T04:26:43.404Z,15.42
2017-05-13T04:27:24.151Z,15.43
2017-05-13T04:28:05.204Z,15.36
2017-05-13T04:28:46.137Z,15.39
2017-05-13T04:29:26.727Z,15.36
2017-05-13T04:30:07.567Z,15.35
2017-05-13T04:30:48.175Z,15.36
2017-05-13T04:31:28.791Z,15.39
2017-05-13T04:32:09.420Z,15.36
2017-05-13T04:32:50.009Z,15.36
2017-05-13T04:33:30.652Z,15.43
2017-05-13T04:34:11.289Z,15.36
2017-05-13T04:34:51.958Z,15.31
2017-05-13T04:35:32.584Z,15.35
2017-05-13T04:36:13.217Z,15.37
2017-05-13T04:36:53.831Z,15.37
2017-05-13T04:37:34.475Z,15.35
2017-05-13T04:38:15.331Z,15.35
2017-05-13T04:38:56.065Z,15.36
2017-05-13T04:39:36.870Z,15.36
2017-05-13T04:40:17.725Z,15.35
2017-05-13T04:40:58.573Z,15.44
2017-05-13T04:41:39.212Z,15.35
2017-05-13T04:42:19.815Z,15.37
2017-05-13T04:43:00.884Z,15.47
2017-05-13T04:43:41.682Z,15.46
2017-05-13T04:44:22.306Z,15.47
2017-05-13T04:45:02.901Z,15.37
2017-05-13T04:45:43.489Z,15.44
2017-05-13T04:46:24.348Z,15.43
2017-05-13T04:47:05.221Z,15.47
2017-05-13T04:47:45.891Z,15.52
2017-05-13T04:48:26.882Z,15.52
2017-05-13T04:49:07.575Z,15.47
2017-05-13T04:49:48.186Z,15.51
2017-05-13T04:50:29.227Z,15.51
2017-05-13T04:51:09.861Z,15.47
2017-05-13T04:51:50.496Z,15.54
2017-05-13T04:52:31.189Z,15.54
2017-05-13T04:53:11.776Z,15.49
2017-05-13T04:53:52.364Z,15.51
2017-05-13T04:54:33.180Z,15.55
2017-05-13T04:55:13.864Z,15.47
2017-05-13T04:55:54.544Z,15.47
2017-05-13T04:56:35.193Z,15.55
2017-05-13T04:57:15.826Z,15.54
2017-05-13T04:57:56.391Z,15.52
2017-05-13T04:58:37.137Z,15.52
2017-05-13T04:59:17.808Z,15.49
2017-05-13T04:59:58.467Z,15.54
2017-05-13T05:00:39.001Z,15.55
2017-05-13T05:01:19.625Z,15.51
2017-05-13T05:02:00.210Z,15.51
2017-05-13T05:02:40.926Z,15.52
2017-05-13T05:03:21.847Z,15.57
2017-05-13T05:04:02.583Z,15.57
2017-05-13T05:04:43.188Z,15.59
2017-05-13T05:05:23.767Z,15.57
2017-05-13T05:06:04.382Z,15.55
2017-05-13T05:06:45.446Z,15.59
2017-05-13T05:07:26.066Z,15.54
2017-05-13T05:08:06.730Z,15.52
2017-05-13T05:08:47.551Z,15.59
2017-05-13T05:09:28.161Z,15.61
2017-05-13T05:10:08.783Z,15.52
2017-05-13T05:10:49.500Z,15.52
2017-05-13T05:11:30.087Z,15.58
2017-05-13T05:12:10.907Z,15.54
2017-05-13T05:12:51.492Z,15.51
2017-05-13T05:13:32.390Z,15.55
2017-05-13T05:14:13.308Z,15.55
2017-05-13T05:14:53.926Z,15.52
2017-05-13T05:15:34.524Z,15.55
2017-05-13T05:16:15.413Z,15.58
2017-05-13T05:16:56.325Z,15.51
2017-05-13T05:17:36.869Z,15.47
2017-05-13T05:18:17.519Z,15.55
2017-05-13T05:18:58.185Z,15.52
2017-05-13T05:19:38.786Z,15.55
2017-05-13T05:20:19.565Z,15.54
2017-05-13T05:21:00.308Z,15.54
2017-05-13T05:21:40.992Z,15.49
2017-05-13T05:22:21.774Z,15.52
2017-05-13T05:23:02.567Z,15.46
2017-05-13T05:23:43.233Z,15.51
2017-05-13T05:24:24.058Z,15.54
2017-05-13T05:25:04.858Z,15.44
2017-05-13T05:25:45.836Z,15.47
2017-05-13T05:26:26.653Z,15.52
2017-05-13T05:27:07.623Z,15.44
2017-05-13T05:27:48.218Z,15.54
2017-05-13T05:28:29.160Z,15.51
2017-05-13T05:29:10.408Z,15.49
2017-05-13T05:29:51.129Z,15.52
2017-05-13T05:30:31.681Z,15.55
2017-05-13T05:31:12.281Z,15.55
2017-05-13T05:31:52.985Z,15.49
2017-05-13T05:32:34.397Z,15.52
2017-05-13T05:33:15.197Z,15.43
2017-05-13T05:33:56.054Z,15.55
2017-05-13T05:34:36.804Z,15.51
2017-05-13T05:35:17.429Z,15.47
2017-05-13T05:35:58.029Z,15.51
2017-05-13T05:36:38.677Z,15.47
2017-05-13T05:37:19.437Z,15.37
2017-05-13T05:38:00.286Z,15.52
2017-05-13T05:38:40.961Z,15.46
2017-05-13T05:39:21.698Z,15.52
2017-05-13T05:40:02.282Z,15.46
2017-05-13T05:40:42.869Z,15.51
2017-05-13T05:41:23.628Z,15.44
2017-05-13T05:42:04.832Z,15.52
2017-05-13T05:42:45.577Z,15.51
2017-05-13T05:43:26.251Z,15.44
2017-05-13T05:44:07.199Z,15.47
2017-05-13T05:44:47.808Z,15.46
2017-05-13T05:45:28.557Z,15.46
2017-05-13T05:46:09.296Z,15.31
2017-05-13T05:46:49.988Z,15.49
2017-05-13T05:47:30.621Z,15.44
2017-05-13T05:48:11.239Z,15.44
2017-05-13T05:48:51.829Z,15.47
2017-05-13T05:49:32.442Z,15.47
2017-05-13T05:50:13.062Z,15.44
2017-05-13T05:50:53.984Z,15.37
2017-05-13T05:51:34.787Z,15.46
2017-05-13T05:52:15.843Z,15.44
2017-05-13T05:52:56.450Z,15.35
2017-05-13T05:53:37.330Z,15.42
2017-05-13T05:54:18.103Z,15.44
2017-05-13T05:54:58.742Z,15.35
2017-05-13T05:55:39.371Z,15.47
2017-05-13T05:56:19.995Z,15.33
2017-05-13T05:57:00.708Z,15.31
2017-05-13T05:57:41.578Z,15.37
2017-05-13T05:58:22.218Z,15.33
2017-05-13T05:59:02.821Z,15.4
2017-05-13T05:59:43.438Z,15.35
2017-05-13T06:00:24.107Z,15.35
2017-05-13T06:01:05.063Z,15.44
2017-05-13T06:01:45.816Z,15.36
2017-05-13T06:02:26.436Z,15.36
2017-05-13T06:03:07.032Z,15.39
2017-05-13T06:03:47.641Z,15.31
2017-05-13T06:04:28.403Z,15.31
2017-05-13T06:05:09.090Z,15.36
2017-05-13T06:05:49.837Z,15.4
2017-05-13T06:06:30.836Z,15.44
2017-05-13T06:07:11.385Z,15.37
2017-05-13T06:07:52.125Z,15.29
2017-05-13T06:08:32.712Z,15.37
2017-05-13T06:09:13.351Z,15.4
2017-05-13T06:09:53.967Z,15.35
2017-05-13T06:10:34.873Z,15.4
2017-05-13T06:11:15.741Z,15.51
2017-05-13T06:11:56.292Z,15.4
2017-05-13T06:12:36.900Z,15.44
2017-05-13T06:13:17.560Z,15.49
2017-05-13T06:13:58.156Z,15.46
2017-05-13T06:14:38.788Z,15.49
2017-05-13T06:15:19.409Z,15.49
2017-05-13T06:16:00.497Z,15.49
2017-05-13T06:16:41.264Z,15.49
2017-05-13T06:17:21.883Z,15.47
2017-05-13T06:18:02.545Z,15.49
2017-05-13T06:18:43.283Z,15.46
2017-05-13T06:19:23.924Z,15.43
2017-05-13T06:20:04.848Z,15.46
2017-05-13T06:20:45.441Z,15.49
2017-05-13T06:21:26.066Z,15.52
2017-05-13T06:22:06.674Z,15.49
2017-05-13T06:22:47.508Z,15.55
2017-05-13T06:23:28.277Z,15.49
2017-05-13T06:24:09.156Z,15.52
2017-05-13T06:24:50.070Z,15.47
2017-05-13T06:25:31.068Z,15.44
2017-05-13T06:26:11.784Z,15.46
2017-05-13T06:26:52.540Z,15.51
2017-05-13T06:27:33.234Z,15.52
2017-05-13T06:28:13.913Z,15.51
2017-05-13T06:28:54.617Z,15.51
2017-05-13T06:29:35.207Z,15.54
2017-05-13T06:30:15.796Z,15.58
2017-05-13T06:30:56.460Z,15.58
2017-05-13T06:31:37.328Z,15.54
2017-05-13T06:32:17.939Z,15.59
2017-05-13T06:32:58.513Z,15.58
2017-05-13T06:33:39.125Z,15.58
2017-05-13T06:34:19.956Z,15.55
2017-05-13T06:35:00.814Z,15.57
2017-05-13T06:35:41.494Z,15.59
2017-05-13T06:36:22.157Z,15.59
2017-05-13T06:37:02.755Z,15.65
2017-05-13T06:37:43.323Z,15.7
2017-05-13T06:38:23.904Z,15.61
2017-05-13T06:39:04.517Z,15.67
2017-05-13T06:39:45.169Z,15.72
2017-05-13T06:40:25.767Z,15.68
2017-05-13T06:41:06.447Z,15.64
2017-05-13T06:41:47.367Z,15.72
2017-05-13T06:42:28.344Z,15.7
2017-05-13T06:43:09.272Z,15.64
2017-05-13T06:43:50.817Z,15.68
2017-05-13T06:44:31.495Z,15.73
2017-05-13T06:45:12.242Z,15.62
2017-05-13T06:45:53.045Z,15.72
2017-05-13T06:46:33.748Z,15.7
2017-05-13T06:47:14.343Z,15.68
2017-05-13T06:47:54.968Z,15.61
2017-05-13T06:48:35.561Z,15.64
2017-05-13T06:49:16.139Z,15.7
2017-05-13T06:49:56.767Z,15.72
2017-05-13T06:50:37.354Z,15.67
2017-05-13T06:51:17.997Z,15.76
2017-05-13T06:51:58.601Z,15.72
2017-05-13T06:52:39.203Z,15.8
2017-05-13T06:53:19.914Z,15.8
2017-05-13T06:54:00.609Z,15.86
2017-05-13T06:54:41.266Z,15.86
2017-05-13T06:55:21.955Z,15.83
2017-05-13T06:56:02.556Z,15.79
2017-05-13T06:56:43.266Z,15.77
2017-05-13T06:57:23.964Z,15.77
2017-05-13T06:58:04.801Z,15.82
2017-05-13T06:58:45.844Z,15.86
2017-05-13T06:59:26.710Z,15.95
2017-05-13T07:00:07.641Z,15.9
2017-05-13T07:00:48.281Z,15.86
2017-05-13T07:01:28.928Z,15.86
2017-05-13T07:02:09.517Z,15.86
2017-05-13T07:02:50.125Z,15.95
2017-05-13T07:03:30.743Z,15.98
2017-05-13T07:04:11.345Z,15.92
2017-05-13T07:04:51.934Z,15.97
2017-05-13T07:05:32.515Z,15.95
2017-05-13T07:06:13.099Z,15.84
2017-05-13T07:06:53.691Z,16
2017-05-13T07:07:34.275Z,15.95
2017-05-13T07:08:14.857Z,15.92
2017-05-13T07:08:55.469Z,15.98
2017-05-13T07:09:36.113Z,15.98
2017-05-13T07:10:16.841Z,16.01
2017-05-13T07:10:57.465Z,15.95
2017-05-13T07:11:38.136Z,16
2017-05-13T07:12:18.779Z,15.95
2017-05-13T07:12:59.356Z,15.98
2017-05-13T07:13:40.036Z,15.91
2017-05-13T07:14:20.674Z,15.98
2017-05-13T07:15:01.238Z,15.95
2017-05-13T07:15:41.851Z,15.95
2017-05-13T07:16:22.462Z,15.97
2017-05-13T07:17:03.075Z,15.95
2017-05-13T07:17:43.695Z,15.94
2017-05-13T07:18:24.271Z,15.94
2017-05-13T07:19:04.903Z,15.97
2017-05-13T07:19:45.577Z,16.04
2017-05-13T07:20:26.195Z,15.97
2017-05-13T07:21:06.765Z,16.02
2017-05-13T07:21:47.349Z,15.98
2017-05-13T07:22:27.960Z,16.02
2017-05-13T07:23:08.571Z,16.1
2017-05-13T07:23:49.174Z,16
2017-05-13T07:24:29.788Z,16.04
2017-05-13T07:25:16.331Z,15.98
2017-05-13T07:25:56.962Z,16.09
2017-05-13T07:26:37.559Z,16
2017-05-13T07:27:18.164Z,16.1
2017-05-13T07:27:58.742Z,16.08
2017-05-13T07:28:39.433Z,16.08
2017-05-13T07:29:20.044Z,16.1
2017-05-13T07:30:00.681Z,15.98
2017-05-13T07:30:41.305Z,15.98
2017-05-13T07:31:21.925Z,16
2017-05-13T07:32:02.554Z,16.09
2017-05-13T07:32:43.217Z,15.97
2017-05-13T07:33:23.830Z,16.05
2017-05-13T07:34:04.469Z,16.01
2017-05-13T07:34:45.090Z,15.97
2017-05-13T07:35:25.679Z,16.04
2017-05-13T07:36:06.362Z,16
2017-05-13T07:36:46.952Z,15.98
2017-05-13T07:37:27.573Z,16.01
2017-05-13T07:38:08.197Z,16
2017-05-13T07:38:48.790Z,15.98
2017-05-13T07:39:29.446Z,16.08
2017-05-13T07:40:10.107Z,16.02
2017-05-13T07:40:52.867Z,16.09
2017-05-13T07:41:41.205Z,16.1
2017-05-13T07:42:23.211Z,16.05
2017-05-13T07:43:06.565Z,16.1
2017-05-13T07:43:47.483Z,16.08
2017-05-13T07:44:37.375Z,16.1
2017-05-13T07:45:29.497Z,16.13
2017-05-13T07:46:28.070Z,16.15
2017-05-13T07:47:13.033Z,16.17
2017-05-13T07:48:01.460Z,16.23
2017-05-13T07:48:47.370Z,16.17
2017-05-13T07:49:30.264Z,16.23
2017-05-13T07:50:28.010Z,16.21
2017-05-13T07:51:12.959Z,16.23
2017-05-13T07:51:56.212Z,16.28
2017-05-13T07:52:40.603Z,16.24
2017-05-13T07:53:25.759Z,16.24
2017-05-13T07:54:09.989Z,16.29
2017-05-13T07:54:52.229Z,16.26
2017-05-13T07:55:32.835Z,16.26
2017-05-13T07:56:14.096Z,16.21
2017-05-13T07:56:54.748Z,16.29
2017-05-13T07:57:35.341Z,16.26
2017-05-13T07:58:15.945Z,16.21
2017-05-13T07:58:56.528Z,16.33
2017-05-13T07:59:37.129Z,16.23
2017-05-13T08:00:17.724Z,16.28
2017-05-13T08:00:58.303Z,16.23
2017-05-13T08:01:38.884Z,16.26
2017-05-13T08:02:19.473Z,16.28
2017-05-13T08:03:00.069Z,16.36
2017-05-13T08:03:40.867Z,16.24
2017-05-13T08:04:21.471Z,16.21
2017-05-13T08:05:02.073Z,16.26
2017-05-13T08:05:42.631Z,16.26
2017-05-13T08:06:23.198Z,16.26
2017-05-13T08:07:03.807Z,16.24
2017-05-13T08:07:44.383Z,16.24
2017-05-13T08:08:24.977Z,16.26
2017-05-13T08:09:05.582Z,16.24
2017-05-13T08:09:46.182Z,16.32
2017-05-13T08:10:26.771Z,16.28
2017-05-13T08:11:07.350Z,16.35
2017-05-13T08:11:47.929Z,16.29
2017-05-13T08:12:28.529Z,16.33
2017-05-13T08:13:09.123Z,16.26
2017-05-13T08:13:49.707Z,16.28
2017-05-13T08:14:30.293Z,16.28
2017-05-13T08:15:10.859Z,16.31
2017-05-13T08:15:51.430Z,16.31
2017-05-13T08:16:32.077Z,16.32
2017-05-13T08:17:12.663Z,16.32
2017-05-13T08:17:53.247Z,16.29
2017-05-13T08:18:33.835Z,16.29
2017-05-13T08:19:14.426Z,16.32
2017-05-13T08:19:55.024Z,16.29
2017-05-13T08:20:35.614Z,16.31
2017-05-13T08:21:16.242Z,16.31
2017-05-13T08:21:56.860Z,16.31
2017-05-13T08:22:37.456Z,16.32
2017-05-13T08:23:18.032Z,16.33
2017-05-13T08:23:58.619Z,16.36
2017-05-13T08:24:39.205Z,16.33
2017-05-13T08:25:19.797Z,16.35
2017-05-13T08:26:00.395Z,16.33
2017-05-13T08:26:40.988Z,16.36
2017-05-13T08:27:21.582Z,16.32
2017-05-13T08:28:02.164Z,16.31
2017-05-13T08:28:42.763Z,16.31
2017-05-13T08:29:23.366Z,16.33
2017-05-13T08:30:03.995Z,16.39
2017-05-13T08:30:44.569Z,16.43
2017-05-13T08:31:25.758Z,16.64
2017-05-13T08:32:06.358Z,16.6
2017-05-13T08:32:46.944Z,16.66
2017-05-13T08:33:27.562Z,16.71
2017-05-13T08:34:08.163Z,16.68
2017-05-13T08:34:48.760Z,16.69
2017-05-13T08:35:29.358Z,16.76
2017-05-13T08:36:09.949Z,16.79
2017-05-13T08:36:50.621Z,16.91
2017-05-13T08:37:31.200Z,16.91
2017-05-13T08:38:11.781Z,17.05
2017-05-13T08:38:52.377Z,17.04
2017-05-13T08:39:33.009Z,17.08
2017-05-13T08:40:13.613Z,17.11
2017-05-13T08:40:54.207Z,17.22
2017-05-13T08:41:34.816Z,17.26
2017-05-13T08:42:15.416Z,17.19
2017-05-13T08:42:56.036Z,17.2
2017-05-13T08:43:37.742Z,17.24
2017-05-13T08:44:19.955Z,17.26
2017-05-13T08:45:01.383Z,17.24
2017-05-13T08:45:43.725Z,17.22
2017-05-13T08:46:25.233Z,17.16
2017-05-13T08:47:06.499Z,17.23
2017-05-13T08:47:47.578Z,17.22